createdAt,value
2018-07-11T00:00:50.078Z,236.7
2018-07-11T00:01:50.792Z,294.3
2018-07-11T00:02:51.480Z,261.1
2018-07-11T00:03:52.410Z,267.5
2018-07-11T00:04:53.080Z,385.9
2018-07-11T00:05:53.743Z,286.0
2018-07-11T00:06:54.955Z,290.6
2018-07-11T00:07:55.723Z,444.2
2018-07-11T00:08:56.398Z,375.8
2018-07-11T00:09:57.067Z,414.3
2018-07-11T00:10:57.736Z,279.2
2018-07-11T00:11:58.406Z,363.0
2018-07-11T00:12:59.085Z,370.1
2018-07-11T00:13:59.763Z,411.8
2018-07-11T00:15:00.708Z,437.8
2018-07-11T00:16:01.361Z,399.9
2018-07-11T00:17:02.039Z,444.2
2018-07-11T00:18:02.723Z,448.1
2018-07-11T00:19:03.397Z,439.3
2018-07-11T00:20:04.073Z,452.9
2018-07-11T00:21:04.753Z,438.0
2018-07-11T00:22:05.437Z,414.4
2018-07-11T00:23:06.344Z,325.3
2018-07-11T00:24:07.017Z,347.9
2018-07-11T00:25:07.693Z,311.4
2018-07-11T00:26:08.366Z,342.1
2018-07-11T00:27:09.042Z,344.7
2018-07-11T00:28:09.712Z,393.4
2018-07-11T00:29:10.381Z,355.9
2018-07-11T00:30:11.057Z,450.0
2018-07-11T00:31:11.725Z,385.3
2018-07-11T00:32:12.450Z,423.0
2018-07-11T00:33:13.124Z,426.0
2018-07-11T00:34:13.783Z,406.8
2018-07-11T00:35:14.703Z,408.1
2018-07-11T00:36:15.382Z,394.3
2018-07-11T00:37:16.395Z,406.5
2018-07-11T00:38:17.025Z,423.9
2018-07-11T00:39:17.691Z,464.9
2018-07-11T00:40:18.366Z,630.6
2018-07-11T00:41:19.025Z,560.7
2018-07-11T00:42:19.712Z,505.1
2018-07-11T00:43:20.376Z,526.7
2018-07-11T00:44:21.290Z,465.2
2018-07-11T00:45:22.328Z,514.9
2018-07-11T00:46:23.011Z,567.6
2018-07-11T00:47:23.950Z,563.4
2018-07-11T00:48:24.875Z,598.7
2018-07-11T00:49:25.556Z,583.7
2018-07-11T00:50:26.219Z,651.9
2018-07-11T00:51:26.907Z,530.7
2018-07-11T00:52:27.831Z,509.9
2018-07-11T00:53:28.767Z,458.1
2018-07-11T00:54:29.459Z,642.0
2018-07-11T00:55:30.129Z,578.6
2018-07-11T00:56:30.805Z,490.7
2018-07-11T00:57:31.487Z,704.8
2018-07-11T00:58:32.161Z,689.4
2018-07-11T00:59:33.174Z,471.9
2018-07-11T01:00:33.847Z,435.5
2018-07-11T01:01:34.523Z,516.7
2018-07-11T01:02:35.190Z,503.8
2018-07-11T01:03:35.856Z,453.6
2018-07-11T01:04:37.141Z,453.4
2018-07-11T01:05:37.801Z,434.5
2018-07-11T01:06:38.725Z,360.8
2018-07-11T01:07:39.401Z,380.5
2018-07-11T01:08:40.072Z,465.1
2018-07-11T01:09:40.756Z,438.8
2018-07-11T01:10:41.416Z,372.0
2018-07-11T01:11:42.103Z,489.7
2018-07-11T01:12:42.813Z,491.0
2018-07-11T01:13:43.453Z,382.5
2018-07-11T01:14:44.132Z,373.7
2018-07-11T01:15:44.815Z,381.7
2018-07-11T01:16:45.741Z,342.6
2018-07-11T01:17:46.413Z,319.3
2018-07-11T01:18:47.083Z,321.6
2018-07-11T01:19:47.756Z,398.3
2018-07-11T01:20:48.432Z,359.1
2018-07-11T01:21:49.110Z,386.5
2018-07-11T01:22:49.787Z,512.7
2018-07-11T01:23:50.459Z,453.8
2018-07-11T01:24:51.430Z,508.6
2018-07-11T01:25:52.100Z,377.1
2018-07-11T01:26:52.774Z,418.0
2018-07-11T01:27:53.462Z,345.0
2018-07-11T01:28:54.129Z,351.6
2018-07-11T01:29:54.856Z,292.4
2018-07-11T01:30:55.529Z,339.0
2018-07-11T01:31:56.202Z,347.0
2018-07-11T01:32:56.865Z,338.1
2018-07-11T01:33:57.536Z,337.9
2018-07-11T01:34:58.205Z,328.1
2018-07-11T01:35:58.895Z,286.7
2018-07-11T01:36:59.572Z,338.3
2018-07-11T01:38:00.239Z,312.9
2018-07-11T01:39:00.919Z,406.9
2018-07-11T01:40:01.588Z,380.9
2018-07-11T01:41:02.513Z,347.3
2018-07-11T01:42:03.196Z,293.9
2018-07-11T01:43:03.870Z,385.0
2018-07-11T01:44:04.795Z,295.3
2018-07-11T01:45:05.476Z,331.5
2018-07-11T01:46:06.154Z,344.4
2018-07-11T01:47:06.810Z,306.4
2018-07-11T01:48:07.495Z,213.2
2018-07-11T01:49:08.163Z,244.3
2018-07-11T01:50:08.825Z,224.1
2018-07-11T01:51:09.515Z,262.6
2018-07-11T01:52:10.187Z,450.0
2018-07-11T01:53:10.858Z,586.9
2018-07-11T01:54:11.538Z,504.3
2018-07-11T01:55:12.208Z,342.7
2018-07-11T01:56:12.891Z,266.2
2018-07-11T01:57:13.563Z,245.4
2018-07-11T01:58:14.231Z,243.1
2018-07-11T01:59:15.255Z,381.3
2018-07-11T02:00:15.919Z,330.5
2018-07-11T02:01:16.606Z,247.2
2018-07-11T02:02:17.276Z,402.1
2018-07-11T02:03:17.943Z,380.6
2018-07-11T02:04:18.681Z,258.3
2018-07-11T02:05:19.361Z,256.1
2018-07-11T02:06:20.050Z,306.8
2018-07-11T02:07:20.728Z,361.2
2018-07-11T02:08:21.413Z,250.4
2018-07-11T02:09:22.098Z,263.1
2018-07-11T02:10:22.776Z,236.1
2018-07-11T02:11:23.493Z,274.0
2018-07-11T02:12:24.175Z,262.8
2018-07-11T02:13:24.853Z,227.2
2018-07-11T02:14:25.526Z,205.0
2018-07-11T02:15:26.199Z,188.5
2018-07-11T02:16:26.864Z,208.9
2018-07-11T02:17:27.539Z,185.8
2018-07-11T02:18:28.208Z,172.6
2018-07-11T02:19:29.139Z,199.7
2018-07-11T02:20:29.807Z,192.5
2018-07-11T02:21:30.538Z,162.5
2018-07-11T02:22:31.206Z,209.4
2018-07-11T02:23:31.872Z,330.9
2018-07-11T02:24:32.545Z,351.2
2018-07-11T02:25:33.241Z,293.8
2018-07-11T02:26:33.903Z,326.0
2018-07-11T02:27:34.585Z,222.6
2018-07-11T02:28:35.263Z,198.3
2018-07-11T02:29:35.938Z,189.3
2018-07-11T02:30:36.868Z,198.3
2018-07-11T02:31:37.597Z,192.0
2018-07-11T02:32:38.271Z,190.6
2018-07-11T02:33:39.185Z,177.8
2018-07-11T02:34:39.858Z,196.3
2018-07-11T02:35:40.541Z,219.5
2018-07-11T02:36:41.561Z,221.0
2018-07-11T02:37:42.240Z,226.8
2018-07-11T02:38:42.917Z,277.9
2018-07-11T02:39:43.588Z,320.1
2018-07-11T02:40:44.262Z,266.9
2018-07-11T02:41:44.939Z,247.2
2018-07-11T02:42:45.613Z,276.0
2018-07-11T02:43:46.294Z,209.4
2018-07-11T02:44:47.210Z,195.7
2018-07-11T02:45:47.887Z,222.7
2018-07-11T02:46:48.556Z,204.6
2018-07-11T02:47:49.232Z,249.8
2018-07-11T02:48:49.908Z,250.9
2018-07-11T02:49:50.591Z,264.1
2018-07-11T02:50:51.257Z,193.3
2018-07-11T02:51:51.931Z,224.9
2018-07-11T02:52:52.605Z,228.3
2018-07-11T02:53:53.329Z,218.2
2018-07-11T02:54:54.010Z,222.2
2018-07-11T02:55:54.681Z,235.7
2018-07-11T02:56:55.355Z,236.4
2018-07-11T02:57:56.276Z,240.0
2018-07-11T02:58:56.954Z,322.4
2018-07-11T02:59:57.631Z,326.9
2018-07-11T03:00:58.313Z,302.2
2018-07-11T03:01:58.992Z,315.6
2018-07-11T03:02:59.666Z,267.5
2018-07-11T03:04:00.343Z,276.9
2018-07-11T03:05:01.015Z,251.7
2018-07-11T03:06:01.688Z,218.6
2018-07-11T03:07:02.362Z,224.7
2018-07-11T03:08:03.045Z,232.9
2018-07-11T03:09:03.973Z,302.3
2018-07-11T03:10:04.653Z,271.6
2018-07-11T03:11:05.326Z,359.1
2018-07-11T03:12:06.012Z,303.1
2018-07-11T03:13:06.689Z,349.6
2018-07-11T03:14:07.364Z,210.7
2018-07-11T03:15:08.297Z,206.7
2018-07-11T03:16:09.228Z,244.5
2018-07-11T03:17:09.906Z,204.3
2018-07-11T03:18:10.905Z,248.7
2018-07-11T03:19:11.557Z,320.9
2018-07-11T03:20:12.237Z,333.6
2018-07-11T03:21:12.921Z,382.3
2018-07-11T03:22:13.589Z,417.4
2018-07-11T03:23:14.520Z,310.1
2018-07-11T03:24:15.195Z,310.3
2018-07-11T03:25:15.874Z,303.1
2018-07-11T03:26:16.556Z,283.2
2018-07-11T03:27:17.269Z,243.1
2018-07-11T03:28:17.951Z,238.6
2018-07-11T03:29:18.625Z,228.1
2018-07-11T03:30:19.547Z,217.8
2018-07-11T03:31:20.215Z,195.2
2018-07-11T03:32:20.882Z,197.7
2018-07-11T03:33:21.575Z,266.4
2018-07-11T03:34:22.249Z,246.0
2018-07-11T03:35:22.946Z,349.0
2018-07-11T03:36:23.612Z,307.8
2018-07-11T03:37:24.342Z,265.7
2018-07-11T03:38:25.020Z,232.3
2018-07-11T03:39:25.703Z,219.6
2018-07-11T03:40:26.384Z,219.3
2018-07-11T03:41:27.067Z,257.8
2018-07-11T03:42:28.047Z,270.5
2018-07-11T03:43:28.978Z,230.9
2018-07-11T03:44:29.665Z,263.9
2018-07-11T03:45:30.333Z,281.6
2018-07-11T03:46:31.252Z,223.4
2018-07-11T03:47:31.937Z,247.0
2018-07-11T03:48:32.603Z,241.9
2018-07-11T03:49:33.279Z,227.6
2018-07-11T03:50:33.956Z,245.5
2018-07-11T03:51:34.635Z,254.9
2018-07-11T03:52:35.312Z,324.0
2018-07-11T03:53:36.234Z,345.9
2018-07-11T03:54:36.910Z,333.0
2018-07-11T03:55:37.595Z,276.3
2018-07-11T03:56:38.270Z,260.4
2018-07-11T03:57:38.959Z,290.2
2018-07-11T03:58:39.889Z,236.5
2018-07-11T03:59:40.560Z,216.3
2018-07-11T04:00:41.240Z,259.8
2018-07-11T04:01:42.177Z,278.1
2018-07-11T04:02:42.854Z,332.0
2018-07-11T04:03:43.538Z,323.0
2018-07-11T04:04:44.243Z,330.4
2018-07-11T04:05:44.892Z,298.5
2018-07-11T04:06:45.589Z,280.8
2018-07-11T04:07:46.255Z,242.8
2018-07-11T04:08:46.934Z,277.0
2018-07-11T04:09:47.608Z,310.3
2018-07-11T04:10:48.633Z,254.9
2018-07-11T04:11:49.313Z,256.2
2018-07-11T04:12:49.995Z,261.0
2018-07-11T04:13:50.669Z,286.4
2018-07-11T04:14:51.353Z,271.7
2018-07-11T04:15:52.084Z,263.5
2018-07-11T04:16:52.753Z,257.8
2018-07-11T04:17:53.427Z,249.6
2018-07-11T04:18:54.103Z,265.5
2018-07-11T04:19:54.789Z,249.3
2018-07-11T04:20:55.816Z,239.0
2018-07-11T04:21:56.497Z,281.8
2018-07-11T04:22:57.182Z,280.7
2018-07-11T04:23:57.848Z,290.9
2018-07-11T04:24:58.526Z,274.0
2018-07-11T04:25:59.203Z,286.4
2018-07-11T04:26:59.889Z,259.2
2018-07-11T04:28:00.617Z,283.1
2018-07-11T04:29:01.546Z,280.6
2018-07-11T04:30:02.228Z,261.8
2018-07-11T04:31:02.903Z,260.0
2018-07-11T04:32:03.593Z,296.2
2018-07-11T04:33:04.321Z,258.7
2018-07-11T04:34:05.004Z,337.6
2018-07-11T04:35:05.683Z,326.6
2018-07-11T04:36:06.366Z,313.8
2018-07-11T04:37:07.046Z,283.9
2018-07-11T04:38:07.776Z,305.6
2018-07-11T04:39:08.458Z,278.8
2018-07-11T04:40:09.157Z,337.7
2018-07-11T04:41:09.836Z,300.6
2018-07-11T04:42:10.506Z,231.5
2018-07-11T04:43:11.188Z,263.9
2018-07-11T04:44:11.861Z,312.3
2018-07-11T04:45:12.538Z,308.4
2018-07-11T04:46:13.227Z,313.3
2018-07-11T04:47:13.913Z,337.7
2018-07-11T04:48:14.597Z,260.4
2018-07-11T04:49:15.282Z,271.5
2018-07-11T04:50:15.956Z,278.7
2018-07-11T04:51:16.635Z,220.1
2018-07-11T04:52:17.324Z,275.5
2018-07-11T04:53:18.008Z,228.3
2018-07-11T04:54:18.737Z,235.2
2018-07-11T04:55:19.443Z,242.0
2018-07-11T04:56:20.124Z,263.0
2018-07-11T04:57:20.796Z,259.5
2018-07-11T04:58:21.479Z,316.4
2018-07-11T04:59:22.154Z,356.9
2018-07-11T05:00:22.843Z,305.1
2018-07-11T05:01:23.519Z,245.7
2018-07-11T05:02:24.199Z,218.2
2018-07-11T05:03:24.892Z,240.4
2018-07-11T05:04:25.581Z,246.0
2018-07-11T05:05:26.551Z,231.6
2018-07-11T05:06:27.232Z,242.8
2018-07-11T05:07:27.914Z,234.2
2018-07-11T05:08:28.599Z,267.5
2018-07-11T05:09:29.277Z,333.5
2018-07-11T05:10:29.972Z,330.2
2018-07-11T05:11:30.650Z,359.3
2018-07-11T05:12:31.321Z,313.9
2018-07-11T05:13:32.004Z,305.8
2018-07-11T05:14:32.696Z,298.0
2018-07-11T05:15:33.430Z,322.1
2018-07-11T05:16:34.405Z,300.2
2018-07-11T05:17:35.147Z,346.9
2018-07-11T05:18:35.884Z,313.1
2018-07-11T05:19:36.516Z,313.3
2018-07-11T05:20:37.195Z,286.6
2018-07-11T05:21:37.886Z,285.6
2018-07-11T05:22:38.610Z,275.2
2018-07-11T05:23:39.306Z,291.9
2018-07-11T05:24:39.985Z,247.1
2018-07-11T05:25:40.661Z,292.6
2018-07-11T05:26:41.385Z,305.8
2018-07-11T05:27:42.391Z,352.8
2018-07-11T05:28:43.103Z,384.5
2018-07-11T05:29:43.835Z,351.5
2018-07-11T05:30:44.577Z,343.0
2018-07-11T05:31:45.312Z,347.3
2018-07-11T05:32:46.043Z,361.1
2018-07-11T05:33:46.730Z,269.6
2018-07-11T05:34:47.404Z,304.8
2018-07-11T05:35:48.088Z,305.6
2018-07-11T05:36:48.771Z,277.3
2018-07-11T05:37:49.500Z,256.5
2018-07-11T05:38:50.196Z,288.9
2018-07-11T05:39:50.871Z,298.9
2018-07-11T05:40:51.558Z,286.7
2018-07-11T05:41:52.490Z,302.0
2018-07-11T05:42:53.523Z,289.4
2018-07-11T05:43:54.197Z,256.8
2018-07-11T05:44:54.887Z,232.6
2018-07-11T05:45:55.569Z,229.3
2018-07-11T05:46:56.254Z,210.4
2018-07-11T05:47:57.287Z,248.6
2018-07-11T05:48:57.989Z,315.5
2018-07-11T05:49:58.662Z,320.5
2018-07-11T05:50:59.344Z,285.6
2018-07-11T05:52:00.038Z,276.5
2018-07-11T05:53:00.705Z,305.3
2018-07-11T05:54:01.385Z,298.7
2018-07-11T05:55:02.078Z,303.6
2018-07-11T05:56:03.123Z,341.7
2018-07-11T05:57:04.050Z,348.4
2018-07-11T05:58:04.727Z,321.6
2018-07-11T05:59:05.419Z,312.3
2018-07-11T06:00:06.109Z,312.7
2018-07-11T06:01:06.840Z,330.9
2018-07-11T06:02:07.532Z,320.9
2018-07-11T06:03:08.211Z,270.6
2018-07-11T06:04:08.891Z,332.0
2018-07-11T06:05:09.579Z,286.0
2018-07-11T06:06:10.614Z,354.2
2018-07-11T06:07:11.287Z,328.2
2018-07-11T06:08:11.971Z,328.6
2018-07-11T06:09:12.649Z,267.7
2018-07-11T06:10:13.343Z,286.5
2018-07-11T06:11:14.065Z,322.6
2018-07-11T06:12:14.736Z,243.4
2018-07-11T06:13:15.480Z,243.7
2018-07-11T06:14:16.205Z,211.1
2018-07-11T06:15:16.931Z,265.1
2018-07-11T06:16:17.672Z,244.6
2018-07-11T06:17:18.398Z,265.5
2018-07-11T06:18:19.132Z,244.6
2018-07-11T06:19:19.861Z,231.5
2018-07-11T06:20:20.650Z,222.8
2018-07-11T06:21:21.369Z,192.7
2018-07-11T06:22:22.341Z,201.2
2018-07-11T06:23:23.126Z,190.1
2018-07-11T06:24:23.813Z,181.7
2018-07-11T06:25:24.792Z,186.2
2018-07-11T06:26:25.769Z,185.6
2018-07-11T06:27:26.498Z,172.4
2018-07-11T06:28:27.221Z,187.2
2018-07-11T06:29:28.003Z,178.4
2018-07-11T06:30:28.731Z,185.4
2018-07-11T06:31:29.455Z,170.9
2018-07-11T06:32:30.191Z,229.0
2018-07-11T06:33:31.002Z,200.5
2018-07-11T06:34:31.720Z,214.9
2018-07-11T06:35:32.454Z,205.3
2018-07-11T06:36:33.184Z,183.0
2018-07-11T06:37:33.913Z,188.6
2018-07-11T06:38:34.661Z,246.9
2018-07-11T06:39:35.395Z,203.8
2018-07-11T06:40:36.127Z,198.0
2018-07-11T06:41:36.865Z,241.4
2018-07-11T06:42:37.601Z,259.5
2018-07-11T06:43:38.330Z,205.8
2018-07-11T06:44:39.063Z,198.1
2018-07-11T06:45:39.783Z,239.8
2018-07-11T06:46:40.531Z,245.1
2018-07-11T06:47:41.252Z,234.0
2018-07-11T06:48:41.993Z,206.7
2018-07-11T06:49:42.763Z,195.4
2018-07-11T06:50:43.489Z,182.2
2018-07-11T06:51:44.219Z,228.8
2018-07-11T06:52:44.940Z,180.8
2018-07-11T06:53:45.673Z,199.0
2018-07-11T06:54:46.459Z,207.8
2018-07-11T06:55:47.133Z,189.7
2018-07-11T06:56:47.814Z,211.3
2018-07-11T06:57:48.737Z,168.9
2018-07-11T06:58:49.422Z,195.3
2018-07-11T06:59:50.099Z,168.5
2018-07-11T07:00:50.775Z,185.9
2018-07-11T07:01:51.497Z,200.2
2018-07-11T07:02:52.177Z,189.2
2018-07-11T07:03:52.858Z,194.5
2018-07-11T07:04:53.613Z,176.7
2018-07-11T07:05:54.298Z,193.3
2018-07-11T07:06:54.983Z,207.9
2018-07-11T07:07:55.667Z,204.8
2018-07-11T07:08:56.351Z,158.2
2018-07-11T07:09:57.042Z,160.5
2018-07-11T07:10:57.719Z,153.2
2018-07-11T07:11:58.456Z,168.1
2018-07-11T07:12:59.126Z,170.2
2018-07-11T07:13:59.814Z,199.9
2018-07-11T07:15:00.499Z,232.3
2018-07-11T07:16:01.181Z,157.3
2018-07-11T07:17:01.908Z,152.7
2018-07-11T07:18:02.853Z,171.0
2018-07-11T07:19:03.528Z,176.9
2018-07-11T07:20:04.452Z,212.3
2018-07-11T07:21:05.137Z,241.8
2018-07-11T07:22:05.912Z,199.8
2018-07-11T07:23:06.645Z,170.5
2018-07-11T07:24:07.402Z,215.9
2018-07-11T07:25:08.131Z,203.9
2018-07-11T07:26:08.868Z,199.9
2018-07-11T07:27:09.849Z,263.2
2018-07-11T07:28:10.585Z,193.2
2018-07-11T07:29:11.339Z,206.0
2018-07-11T07:30:12.046Z,270.6
2018-07-11T07:31:12.785Z,214.9
2018-07-11T07:32:13.505Z,180.8
2018-07-11T07:33:14.181Z,179.9
2018-07-11T07:34:14.958Z,233.5
2018-07-11T07:35:15.687Z,221.8
2018-07-11T07:36:16.411Z,180.5
2018-07-11T07:37:17.147Z,201.2
2018-07-11T07:38:17.886Z,204.9
2018-07-11T07:39:18.914Z,187.1
2018-07-11T07:40:19.892Z,216.5
2018-07-11T07:41:20.628Z,172.9
2018-07-11T07:42:21.358Z,193.3
2018-07-11T07:43:22.100Z,209.9
2018-07-11T07:44:23.189Z,183.2
2018-07-11T07:45:23.908Z,159.0
2018-07-11T07:46:24.638Z,195.6
2018-07-11T07:47:25.382Z,208.1
2018-07-11T07:48:26.118Z,214.7
2018-07-11T07:49:26.844Z,203.1
2018-07-11T07:50:27.573Z,172.9
2018-07-11T07:51:28.317Z,229.7
2018-07-11T07:52:29.052Z,211.2
2018-07-11T07:53:29.787Z,264.5
2018-07-11T07:54:30.508Z,212.3
2018-07-11T07:55:31.250Z,192.5
2018-07-11T07:56:31.979Z,229.4
2018-07-11T07:57:32.733Z,237.6
2018-07-11T07:58:33.728Z,226.7
2018-07-11T07:59:34.504Z,219.3
2018-07-11T08:00:35.361Z,248.3
2018-07-11T08:01:35.863Z,241.8
2018-07-11T08:02:36.547Z,184.0
2018-07-11T08:03:37.223Z,231.2
2018-07-11T08:04:37.902Z,228.0
2018-07-11T08:05:38.579Z,226.2
2018-07-11T08:06:39.258Z,233.7
2018-07-11T08:07:39.941Z,224.0
2018-07-11T08:08:40.876Z,206.4
2018-07-11T08:09:41.610Z,247.4
2018-07-11T08:10:42.297Z,227.3
2018-07-11T08:11:43.232Z,238.5
2018-07-11T08:12:43.988Z,235.9
2018-07-11T08:13:44.609Z,223.9
2018-07-11T08:14:45.332Z,237.3
2018-07-11T08:15:46.033Z,247.3
2018-07-11T08:16:46.702Z,243.5
2018-07-11T08:17:47.377Z,221.7
2018-07-11T08:18:48.058Z,227.7
2018-07-11T08:19:48.741Z,226.9
2018-07-11T08:20:49.424Z,250.0
2018-07-11T08:21:50.153Z,257.0
2018-07-11T08:22:50.834Z,230.6
2018-07-11T08:23:51.521Z,271.1
2018-07-11T08:24:52.205Z,203.0
2018-07-11T08:25:53.130Z,185.1
2018-07-11T08:26:53.865Z,180.6
2018-07-11T08:27:54.556Z,216.5
2018-07-11T08:28:55.233Z,220.4
2018-07-11T08:29:55.916Z,218.5
2018-07-11T08:30:56.601Z,225.4
2018-07-11T08:31:57.286Z,198.8
2018-07-11T08:32:57.967Z,188.2
2018-07-11T08:33:58.894Z,174.7
2018-07-11T08:34:59.679Z,229.8
2018-07-11T08:36:00.312Z,279.9
2018-07-11T08:37:00.998Z,282.2
2018-07-11T08:38:01.691Z,288.7
2018-07-11T08:39:02.376Z,218.5
2018-07-11T08:40:03.400Z,265.0
2018-07-11T08:41:04.330Z,275.7
2018-07-11T08:42:05.049Z,241.1
2018-07-11T08:43:05.699Z,199.5
2018-07-11T08:44:06.376Z,199.4
2018-07-11T08:45:07.106Z,207.6
2018-07-11T08:46:07.788Z,180.6
2018-07-11T08:47:08.469Z,191.2
2018-07-11T08:48:09.423Z,206.0
2018-07-11T08:49:10.087Z,175.5
2018-07-11T08:50:10.819Z,185.9
2018-07-11T08:51:11.503Z,182.5
2018-07-11T08:52:12.190Z,167.5
2018-07-11T08:53:12.865Z,181.6
2018-07-11T08:54:13.540Z,188.8
2018-07-11T08:55:14.228Z,189.1
2018-07-11T08:56:14.908Z,163.2
2018-07-11T08:57:15.583Z,154.9
2018-07-11T08:58:16.315Z,158.9
2018-07-11T08:59:17.263Z,156.1
2018-07-11T09:00:17.952Z,185.7
2018-07-11T09:01:18.633Z,149.1
2018-07-11T09:02:19.322Z,157.0
2018-07-11T09:03:20.349Z,156.2
2018-07-11T09:04:21.279Z,164.5
2018-07-11T09:05:21.968Z,158.8
2018-07-11T09:06:22.646Z,161.7
2018-07-11T09:07:23.341Z,158.2
2018-07-11T09:08:24.625Z,154.6
2018-07-11T09:09:25.308Z,155.2
2018-07-11T09:10:26.002Z,149.9
2018-07-11T09:11:26.675Z,163.2
2018-07-11T09:12:27.353Z,137.0
2018-07-11T09:13:28.081Z,165.9
2018-07-11T09:14:28.756Z,161.4
2018-07-11T09:15:29.441Z,166.6
2018-07-11T09:16:30.144Z,173.0
2018-07-11T09:17:30.830Z,156.7
2018-07-11T09:18:31.520Z,152.8
2018-07-11T09:19:32.198Z,156.0
2018-07-11T09:20:32.895Z,147.4
2018-07-11T09:21:33.590Z,154.7
2018-07-11T09:22:34.272Z,155.1
2018-07-11T09:23:34.948Z,148.2
2018-07-11T09:24:35.629Z,134.9
2018-07-11T09:25:36.310Z,148.6
2018-07-11T09:26:37.248Z,137.0
2018-07-11T09:27:37.938Z,145.9
2018-07-11T09:28:38.627Z,131.6
2018-07-11T09:29:39.366Z,138.1
2018-07-11T09:30:40.071Z,152.5
2018-07-11T09:31:40.739Z,137.7
2018-07-11T09:32:41.417Z,122.9
2018-07-11T09:33:42.098Z,142.5
2018-07-11T09:34:42.834Z,125.4
2018-07-11T09:35:43.518Z,126.6
2018-07-11T09:36:44.194Z,143.2
2018-07-11T09:37:44.874Z,130.5
2018-07-11T09:38:45.558Z,148.0
2018-07-11T09:39:46.234Z,126.9
2018-07-11T09:40:46.919Z,119.8
2018-07-11T09:41:47.614Z,143.3
2018-07-11T09:42:48.310Z,127.2
2018-07-11T09:43:48.995Z,136.8
2018-07-11T09:44:49.693Z,139.1
2018-07-11T09:45:50.368Z,151.8
2018-07-11T09:46:51.058Z,148.9
2018-07-11T09:47:51.736Z,161.2
2018-07-11T09:48:52.419Z,167.3
2018-07-11T09:49:53.098Z,167.0
2018-07-11T09:50:53.777Z,132.5
2018-07-11T09:51:54.461Z,122.0
2018-07-11T09:52:55.145Z,130.7
2018-07-11T09:53:55.833Z,123.4
2018-07-11T09:54:56.762Z,135.0
2018-07-11T09:55:57.441Z,137.4
2018-07-11T09:56:58.119Z,139.4
2018-07-11T09:57:58.796Z,122.6
2018-07-11T09:58:59.469Z,121.4
2018-07-11T10:00:00.159Z,123.8
2018-07-11T10:01:00.830Z,116.6
2018-07-11T10:02:01.531Z,126.1
2018-07-11T10:03:02.215Z,121.0
2018-07-11T10:04:02.950Z,114.2
2018-07-11T10:05:03.658Z,115.8
2018-07-11T10:06:04.329Z,113.5
2018-07-11T10:07:05.266Z,118.6
2018-07-11T10:08:05.951Z,111.9
2018-07-11T10:09:06.681Z,102.4
2018-07-11T10:10:07.616Z,106.4
2018-07-11T10:11:08.292Z,98.9
2018-07-11T10:12:08.981Z,95.0
2018-07-11T10:13:09.665Z,81.6
2018-07-11T10:14:10.353Z,80.4
2018-07-11T10:15:11.036Z,87.6
2018-07-11T10:16:11.725Z,79.3
2018-07-11T10:17:12.400Z,87.4
2018-07-11T10:18:13.079Z,78.7
2018-07-11T10:19:13.755Z,82.0
2018-07-11T10:20:14.435Z,92.5
2018-07-11T10:21:15.174Z,76.1
2018-07-11T10:22:15.850Z,73.3
2018-07-11T10:23:16.538Z,65.4
2018-07-11T10:24:17.205Z,64.0
2018-07-11T10:25:17.889Z,72.0
2018-07-11T10:26:18.583Z,70.0
2018-07-11T10:27:19.257Z,73.4
2018-07-11T10:28:19.936Z,78.4
2018-07-11T10:29:20.620Z,79.1
2018-07-11T10:30:21.312Z,75.9
2018-07-11T10:31:21.989Z,80.1
2018-07-11T10:32:22.676Z,75.6
2018-07-11T10:33:23.360Z,105.4
2018-07-11T10:34:24.049Z,102.7
2018-07-11T10:35:24.718Z,98.3
2018-07-11T10:36:25.411Z,84.9
2018-07-11T10:37:26.089Z,84.2
2018-07-11T10:38:26.770Z,80.8
2018-07-11T10:39:27.448Z,81.7
2018-07-11T10:40:28.136Z,94.4
2018-07-11T10:41:28.814Z,91.8
2018-07-11T10:42:29.489Z,92.3
2018-07-11T10:43:30.177Z,88.2
2018-07-11T10:44:30.850Z,103.1
2018-07-11T10:45:31.828Z,108.1
2018-07-11T10:46:32.801Z,125.1
2018-07-11T10:47:33.524Z,97.7
2018-07-11T10:48:34.208Z,86.2
2018-07-11T10:49:34.938Z,97.5
2018-07-11T10:50:35.686Z,101.0
2018-07-11T10:51:36.397Z,87.1
2018-07-11T10:52:37.483Z,94.1
2018-07-11T10:53:38.173Z,114.3
2018-07-11T10:54:38.856Z,101.0
2018-07-11T10:55:39.785Z,108.0
2018-07-11T10:56:40.468Z,88.0
2018-07-11T10:57:41.445Z,93.1
2018-07-11T10:58:42.086Z,85.5
2018-07-11T10:59:42.766Z,100.1
2018-07-11T11:01:05.020Z,97.6
2018-07-11T11:01:44.129Z,90.4
2018-07-11T11:02:44.844Z,103.3
2018-07-11T11:03:45.498Z,95.6
2018-07-11T11:04:46.226Z,105.0
2018-07-11T11:05:46.861Z,97.7
2018-07-11T11:06:47.541Z,91.4
2018-07-11T11:07:48.225Z,90.1
2018-07-11T11:08:48.909Z,102.1
2018-07-11T11:09:49.587Z,106.0
2018-07-11T11:10:50.267Z,97.3
2018-07-11T11:11:50.952Z,107.1
2018-07-11T11:12:51.631Z,89.7
2018-07-11T11:13:52.363Z,112.1
2018-07-11T11:14:53.282Z,101.2
2018-07-11T11:16:55.824Z,80.7
2018-07-11T11:17:56.523Z,80.7
2018-07-11T11:18:57.205Z,73.9
2018-07-11T11:19:57.875Z,78.5
2018-07-11T11:20:58.819Z,68.3
2018-07-11T11:21:59.508Z,64.9
2018-07-11T11:23:00.190Z,62.2
2018-07-11T11:24:00.881Z,59.7
2018-07-11T11:25:01.574Z,69.3
2018-07-11T11:26:02.250Z,71.7
2018-07-11T11:27:02.920Z,75.3
2018-07-11T11:28:03.617Z,73.4
2018-07-11T11:29:04.306Z,64.7
2018-07-11T11:30:04.987Z,75.4
2018-07-11T11:31:05.657Z,91.8
2018-07-11T11:32:06.332Z,80.5
2018-07-11T11:33:07.014Z,72.0
2018-07-11T11:34:07.690Z,65.9
2018-07-11T11:35:08.372Z,71.4
2018-07-11T11:36:09.403Z,60.8
2018-07-11T11:37:10.380Z,66.9
2018-07-11T11:38:11.121Z,76.2
2018-07-11T11:39:11.796Z,73.2
2018-07-11T11:40:12.723Z,63.1
2018-07-11T11:41:13.453Z,63.5
2018-07-11T11:42:14.430Z,74.8
2018-07-11T11:43:14.812Z,83.1
2018-07-11T11:44:15.509Z,84.6
2018-07-11T11:45:16.183Z,58.1
2018-07-11T11:46:16.848Z,63.6
2018-07-11T11:47:17.532Z,62.2
2018-07-11T11:48:18.216Z,58.6
2018-07-11T11:49:18.896Z,53.4
2018-07-11T11:50:19.585Z,68.4
2018-07-11T11:51:20.320Z,54.7
2018-07-11T11:52:21.012Z,64.5
2018-07-11T11:53:21.695Z,66.8
2018-07-11T11:54:22.378Z,66.3
2018-07-11T11:55:23.307Z,42.1
2018-07-11T11:56:23.990Z,43.4
2018-07-11T11:57:24.687Z,49.5
2018-07-11T11:58:25.366Z,48.2
2018-07-11T11:59:26.048Z,58.8
2018-07-11T12:00:26.726Z,49.3
2018-07-11T12:01:27.657Z,49.2
2018-07-11T12:02:28.340Z,51.6
2018-07-11T12:03:29.024Z,46.0
2018-07-11T12:04:29.699Z,51.9
2018-07-11T12:05:30.384Z,57.8
2018-07-11T12:06:31.084Z,51.3
2018-07-11T12:07:31.767Z,59.4
2018-07-11T12:08:32.452Z,49.2
2018-07-11T12:09:33.124Z,52.3
2018-07-11T12:10:33.804Z,51.0
2018-07-11T12:11:34.500Z,64.2
2018-07-11T12:12:35.185Z,52.2
2018-07-11T12:13:35.842Z,46.7
2018-07-11T12:14:36.527Z,54.3
2018-07-11T12:15:37.218Z,60.2
2018-07-11T12:16:37.898Z,46.6
2018-07-11T12:17:38.595Z,45.8
2018-07-11T12:18:39.264Z,45.0
2018-07-11T12:19:40.289Z,47.0
2018-07-11T12:20:40.967Z,49.7
2018-07-11T12:21:41.647Z,44.9
2018-07-11T12:22:42.326Z,48.2
2018-07-11T12:23:43.011Z,47.6
2018-07-11T12:24:43.696Z,50.3
2018-07-11T12:25:44.374Z,46.8
2018-07-11T12:26:45.060Z,44.9
2018-07-11T12:27:45.736Z,50.5
2018-07-11T12:28:46.468Z,50.7
2018-07-11T12:29:47.192Z,45.5
2018-07-11T12:30:47.912Z,63.5
2018-07-11T12:31:48.647Z,76.3
2018-07-11T12:32:49.380Z,60.1
2018-07-11T12:33:50.368Z,46.8
2018-07-11T12:34:51.092Z,57.1
2018-07-11T12:35:51.827Z,59.1
2018-07-11T12:36:52.584Z,51.5
2018-07-11T12:37:53.305Z,74.1
2018-07-11T12:38:54.047Z,57.0
2018-07-11T12:39:54.769Z,64.0
2018-07-11T12:40:55.495Z,52.7
2018-07-11T12:41:56.223Z,50.0
2018-07-11T12:42:56.957Z,68.7
2018-07-11T12:43:57.685Z,59.0
2018-07-11T12:44:58.674Z,64.8
2018-07-11T12:45:59.411Z,63.2
2018-07-11T12:47:00.139Z,47.5
2018-07-11T12:48:00.871Z,53.3
2018-07-11T12:49:01.606Z,47.9
2018-07-11T12:50:02.350Z,52.5
2018-07-11T12:51:03.094Z,47.1
2018-07-11T12:52:04.073Z,67.5
2018-07-11T12:53:04.810Z,46.4
2018-07-11T12:54:05.565Z,46.2
2018-07-11T12:55:06.289Z,55.4
2018-07-11T12:56:07.018Z,51.1
2018-07-11T12:57:07.749Z,48.2
2018-07-11T12:58:08.825Z,48.5
2018-07-11T12:59:09.561Z,52.6
2018-07-11T13:00:10.294Z,47.4
2018-07-11T13:01:11.062Z,50.9
2018-07-11T13:02:11.785Z,52.6
2018-07-11T13:03:12.527Z,54.1
2018-07-11T13:04:13.252Z,54.2
2018-07-11T13:05:14.033Z,51.2
2018-07-11T13:06:14.755Z,52.3
2018-07-11T13:07:15.481Z,54.6
2018-07-11T13:08:16.210Z,50.5